sensor_id;sensor_type;location;lat;lon;timestamp;P1;durP1;ratioP1;P2;durP2;ratioP2
19127;SDS011;9696;53.686;10.094;2022-09-28T00:01:40;8.63;;;5.93;;
19127;SDS011;9696;53.686;10.094;2022-09-28T00:04:09;9.80;;;6.77;;
19127;SDS011;9696;53.686;10.094;2022-09-28T00:06:39;9.67;;;6.27;;
19127;SDS011;9696;53.686;10.094;2022-09-28T00:09:08;8.60;;;6.17;;
19127;SDS011;9696;53.686;10.094;2022-09-28T00:11:37;11.23;;;6.50;;
19127;SDS011;9696;53.686;10.094;2022-09-28T00:14:08;9.20;;;6.13;;
19127;SDS011;9696;53.686;10.094;2022-09-28T00:16:38;13.10;;;5.67;;
19127;SDS011;9696;53.686;10.094;2022-09-28T00:19:10;8.37;;;5.83;;
19127;SDS011;9696;53.686;10.094;2022-09-28T00:21:40;8.40;;;5.53;;
19127;SDS011;9696;53.686;10.094;2022-09-28T00:24:10;9.20;;;5.10;;
19127;SDS011;9696;53.686;10.094;2022-09-28T00:26:43;9.70;;;5.27;;
19127;SDS011;9696;53.686;10.094;2022-09-28T00:29:17;9.00;;;5.60;;
19127;SDS011;9696;53.686;10.094;2022-09-28T00:31:50;9.60;;;6.00;;
19127;SDS011;9696;53.686;10.094;2022-09-28T00:34:23;9.70;;;5.57;;
19127;SDS011;9696;53.686;10.094;2022-09-28T00:36:53;11.47;;;6.20;;
19127;SDS011;9696;53.686;10.094;2022-09-28T00:39:22;11.33;;;6.10;;
19127;SDS011;9696;53.686;10.094;2022-09-28T00:41:53;13.53;;;6.43;;
19127;SDS011;9696;53.686;10.094;2022-09-28T00:47:35;10.57;;;6.67;;
19127;SDS011;9696;53.686;10.094;2022-09-28T00:50:10;11.40;;;6.73;;
19127;SDS011;9696;53.686;10.094;2022-09-28T00:52:46;14.07;;;6.63;;
19127;SDS011;9696;53.686;10.094;2022-09-28T00:55:21;10.50;;;6.37;;
19127;SDS011;9696;53.686;10.094;2022-09-28T00:57:58;13.90;;;6.57;;
19127;SDS011;9696;53.686;10.094;2022-09-28T01:00:33;9.53;;;6.53;;
19127;SDS011;9696;53.686;10.094;2022-09-28T01:03:02;11.87;;;6.87;;
19127;SDS011;9696;53.686;10.094;2022-09-28T01:05:33;9.87;;;6.03;;
19127;SDS011;9696;53.686;10.094;2022-09-28T01:08:03;11.30;;;7.10;;
19127;SDS011;9696;53.686;10.094;2022-09-28T01:10:34;10.70;;;6.57;;
19127;SDS011;9696;53.686;10.094;2022-09-28T01:13:03;12.10;;;7.27;;
19127;SDS011;9696;53.686;10.094;2022-09-28T01:15:34;10.50;;;7.30;;
19127;SDS011;9696;53.686;10.094;2022-09-28T01:18:12;11.57;;;6.67;;
19127;SDS011;9696;53.686;10.094;2022-09-28T01:20:53;11.30;;;7.80;;
19127;SDS011;9696;53.686;10.094;2022-09-28T01:26:46;11.30;;;6.67;;
19127;SDS011;9696;53.686;10.094;2022-09-28T01:29:27;14.60;;;7.03;;
19127;SDS011;9696;53.686;10.094;2022-09-28T01:32:09;12.33;;;7.50;;
19127;SDS011;9696;53.686;10.094;2022-09-28T01:34:44;12.47;;;7.80;;
19127;SDS011;9696;53.686;10.094;2022-09-28T01:37:20;12.17;;;6.40;;
19127;SDS011;9696;53.686;10.094;2022-09-28T01:39:53;9.90;;;6.53;;
19127;SDS011;9696;53.686;10.094;2022-09-28T01:42:27;18.57;;;7.23;;
19127;SDS011;9696;53.686;10.094;2022-09-28T01:45:03;18.37;;;7.27;;
19127;SDS011;9696;53.686;10.094;2022-09-28T01:47:38;10.27;;;6.73;;
19127;SDS011;9696;53.686;10.094;2022-09-28T01:50:09;11.10;;;7.47;;
19127;SDS011;9696;53.686;10.094;2022-09-28T01:52:43;13.30;;;6.87;;
19127;SDS011;9696;53.686;10.094;2022-09-28T01:55:18;8.87;;;6.33;;
19127;SDS011;9696;53.686;10.094;2022-09-28T01:57:57;14.93;;;6.60;;
19127;SDS011;9696;53.686;10.094;2022-09-28T02:00:31;10.53;;;7.10;;
19127;SDS011;9696;53.686;10.094;2022-09-28T02:03:04;9.30;;;6.70;;
19127;SDS011;9696;53.686;10.094;2022-09-28T02:05:42;11.33;;;6.33;;
19127;SDS011;9696;53.686;10.094;2022-09-28T02:08:17;10.63;;;6.40;;
19127;SDS011;9696;53.686;10.094;2022-09-28T02:10:53;11.27;;;7.27;;
19127;SDS011;9696;53.686;10.094;2022-09-28T02:13:29;13.97;;;6.37;;
19127;SDS011;9696;53.686;10.094;2022-09-28T02:16:03;11.50;;;6.20;;
19127;SDS011;9696;53.686;10.094;2022-09-28T02:18:39;9.00;;;6.47;;
19127;SDS011;9696;53.686;10.094;2022-09-28T02:21:13;13.87;;;7.47;;
19127;SDS011;9696;53.686;10.094;2022-09-28T02:23:51;12.50;;;6.90;;
19127;SDS011;9696;53.686;10.094;2022-09-28T02:26:31;12.30;;;7.00;;
19127;SDS011;9696;53.686;10.094;2022-09-28T02:29:05;10.90;;;6.93;;
19127;SDS011;9696;53.686;10.094;2022-09-28T02:31:35;12.00;;;7.43;;
19127;SDS011;9696;53.686;10.094;2022-09-28T02:34:04;26.80;;;6.87;;
19127;SDS011;9696;53.686;10.094;2022-09-28T02:36:33;11.60;;;6.87;;
19127;SDS011;9696;53.686;10.094;2022-09-28T02:39:03;11.13;;;7.03;;
19127;SDS011;9696;53.686;10.094;2022-09-28T02:41:36;10.70;;;6.87;;
19127;SDS011;9696;53.686;10.094;2022-09-28T02:44:25;11.77;;;7.03;;
19127;SDS011;9696;53.686;10.094;2022-09-28T02:47:10;9.37;;;6.87;;
19127;SDS011;9696;53.686;10.094;2022-09-28T02:49:55;10.13;;;7.00;;
19127;SDS011;9696;53.686;10.094;2022-09-28T02:52:40;15.90;;;7.67;;
19127;SDS011;9696;53.686;10.094;2022-09-28T02:55:33;10.07;;;7.03;;
19127;SDS011;9696;53.686;10.094;2022-09-28T02:58:15;12.17;;;7.13;;
19127;SDS011;9696;53.686;10.094;2022-09-28T03:00:54;11.37;;;7.07;;
19127;SDS011;9696;53.686;10.094;2022-09-28T03:03:31;16.53;;;7.97;;
19127;SDS011;9696;53.686;10.094;2022-09-28T03:06:10;12.80;;;7.70;;
19127;SDS011;9696;53.686;10.094;2022-09-28T03:08:49;14.93;;;8.23;;
19127;SDS011;9696;53.686;10.094;2022-09-28T03:11:29;14.20;;;8.13;;
19127;SDS011;9696;53.686;10.094;2022-09-28T03:14:03;10.93;;;7.00;;
19127;SDS011;9696;53.686;10.094;2022-09-28T03:16:43;16.03;;;7.63;;
19127;SDS011;9696;53.686;10.094;2022-09-28T03:19:13;10.03;;;7.30;;
19127;SDS011;9696;53.686;10.094;2022-09-28T03:21:46;17.50;;;8.00;;
19127;SDS011;9696;53.686;10.094;2022-09-28T03:24:15;11.17;;;7.33;;
19127;SDS011;9696;53.686;10.094;2022-09-28T03:26:44;11.17;;;6.53;;
19127;SDS011;9696;53.686;10.094;2022-09-28T03:29:13;25.80;;;8.70;;
19127;SDS011;9696;53.686;10.094;2022-09-28T03:31:47;11.53;;;7.33;;
19127;SDS011;9696;53.686;10.094;2022-09-28T03:34:16;13.27;;;7.40;;
19127;SDS011;9696;53.686;10.094;2022-09-28T03:36:45;11.93;;;7.63;;
19127;SDS011;9696;53.686;10.094;2022-09-28T03:39:14;10.37;;;6.80;;
19127;SDS011;9696;53.686;10.094;2022-09-28T03:41:43;13.53;;;7.30;;
19127;SDS011;9696;53.686;10.094;2022-09-28T03:44:12;15.53;;;8.70;;
19127;SDS011;9696;53.686;10.094;2022-09-28T03:46:42;12.20;;;7.27;;
19127;SDS011;9696;53.686;10.094;2022-09-28T03:49:12;11.57;;;7.17;;
19127;SDS011;9696;53.686;10.094;2022-09-28T03:51:41;11.63;;;7.27;;
19127;SDS011;9696;53.686;10.094;2022-09-28T03:54:10;12.67;;;7.67;;
19127;SDS011;9696;53.686;10.094;2022-09-28T03:56:40;10.93;;;6.90;;
19127;SDS011;9696;53.686;10.094;2022-09-28T03:59:09;12.00;;;7.73;;
19127;SDS011;9696;53.686;10.094;2022-09-28T04:01:38;13.40;;;8.43;;
19127;SDS011;9696;53.686;10.094;2022-09-28T04:04:09;11.50;;;8.23;;
19127;SDS011;9696;53.686;10.094;2022-09-28T04:06:40;9.87;;;6.70;;
19127;SDS011;9696;53.686;10.094;2022-09-28T04:09:09;14.50;;;7.07;;
19127;SDS011;9696;53.686;10.094;2022-09-28T04:11:38;14.90;;;7.30;;
19127;SDS011;9696;53.686;10.094;2022-09-28T04:14:28;12.83;;;6.37;;
19127;SDS011;9696;53.686;10.094;2022-09-28T04:16:57;11.50;;;6.70;;
19127;SDS011;9696;53.686;10.094;2022-09-28T04:19:29;11.93;;;6.57;;
19127;SDS011;9696;53.686;10.094;2022-09-28T04:22:20;17.37;;;6.50;;
19127;SDS011;9696;53.686;10.094;2022-09-28T04:24:50;26.23;;;8.20;;
19127;SDS011;9696;53.686;10.094;2022-09-28T04:27:19;10.63;;;6.40;;
19127;SDS011;9696;53.686;10.094;2022-09-28T04:30:06;14.33;;;7.07;;
19127;SDS011;9696;53.686;10.094;2022-09-28T04:32:37;23.10;;;7.17;;
19127;SDS011;9696;53.686;10.094;2022-09-28T04:35:07;64.87;;;9.67;;
19127;SDS011;9696;53.686;10.094;2022-09-28T04:37:39;81.87;;;10.63;;
19127;SDS011;9696;53.686;10.094;2022-09-28T04:40:09;27.80;;;8.13;;
19127;SDS011;9696;53.686;10.094;2022-09-28T04:42:38;33.63;;;7.87;;
19127;SDS011;9696;53.686;10.094;2022-09-28T04:45:08;29.17;;;8.90;;
19127;SDS011;9696;53.686;10.094;2022-09-28T04:47:41;31.33;;;8.83;;
19127;SDS011;9696;53.686;10.094;2022-09-28T04:50:31;104.07;;;10.80;;
19127;SDS011;9696;53.686;10.094;2022-09-28T04:53:19;95.73;;;9.63;;
19127;SDS011;9696;53.686;10.094;2022-09-28T04:55:56;45.53;;;7.93;;
19127;SDS011;9696;53.686;10.094;2022-09-28T04:58:26;85.37;;;9.70;;
19127;SDS011;9696;53.686;10.094;2022-09-28T05:00:56;51.37;;;9.63;;
19127;SDS011;9696;53.686;10.094;2022-09-28T05:03:53;34.93;;;9.07;;
19127;SDS011;9696;53.686;10.094;2022-09-28T05:06:45;45.47;;;8.80;;
19127;SDS011;9696;53.686;10.094;2022-09-28T05:09:15;33.67;;;7.93;;
19127;SDS011;9696;53.686;10.094;2022-09-28T05:11:47;19.80;;;7.47;;
19127;SDS011;9696;53.686;10.094;2022-09-28T05:14:20;13.53;;;7.50;;
19127;SDS011;9696;53.686;10.094;2022-09-28T05:16:51;64.43;;;9.57;;
19127;SDS011;9696;53.686;10.094;2022-09-28T05:19:35;46.03;;;9.80;;
19127;SDS011;9696;53.686;10.094;2022-09-28T05:22:04;20.17;;;9.23;;
19127;SDS011;9696;53.686;10.094;2022-09-28T05:24:42;91.73;;;11.83;;
19127;SDS011;9696;53.686;10.094;2022-09-28T05:27:12;35.13;;;9.60;;
19127;SDS011;9696;53.686;10.094;2022-09-28T05:29:45;14.30;;;9.03;;
19127;SDS011;9696;53.686;10.094;2022-09-28T05:32:38;18.70;;;9.50;;
19127;SDS011;9696;53.686;10.094;2022-09-28T05:35:18;59.13;;;11.57;;
19127;SDS011;9696;53.686;10.094;2022-09-28T05:37:47;31.47;;;10.50;;
19127;SDS011;9696;53.686;10.094;2022-09-28T05:40:18;45.73;;;10.73;;
19127;SDS011;9696;53.686;10.094;2022-09-28T05:42:47;35.87;;;11.63;;
19127;SDS011;9696;53.686;10.094;2022-09-28T05:45:17;22.07;;;10.47;;
19127;SDS011;9696;53.686;10.094;2022-09-28T05:47:45;22.83;;;9.50;;
19127;SDS011;9696;53.686;10.094;2022-09-28T05:50:17;23.20;;;11.10;;
19127;SDS011;9696;53.686;10.094;2022-09-28T05:52:55;21.77;;;10.67;;
19127;SDS011;9696;53.686;10.094;2022-09-28T05:55:27;26.73;;;12.43;;
19127;SDS011;9696;53.686;10.094;2022-09-28T05:57:57;22.00;;;10.50;;
19127;SDS011;9696;53.686;10.094;2022-09-28T06:00:28;29.23;;;11.50;;
19127;SDS011;9696;53.686;10.094;2022-09-28T06:02:59;31.73;;;12.20;;
19127;SDS011;9696;53.686;10.094;2022-09-28T06:05:35;27.80;;;12.53;;
19127;SDS011;9696;53.686;10.094;2022-09-28T06:08:05;24.20;;;12.90;;
19127;SDS011;9696;53.686;10.094;2022-09-28T06:10:43;28.30;;;11.90;;
19127;SDS011;9696;53.686;10.094;2022-09-28T06:13:12;27.67;;;11.77;;
19127;SDS011;9696;53.686;10.094;2022-09-28T06:15:41;28.13;;;12.27;;
19127;SDS011;9696;53.686;10.094;2022-09-28T06:18:13;25.33;;;11.53;;
19127;SDS011;9696;53.686;10.094;2022-09-28T06:21:00;25.27;;;12.10;;
19127;SDS011;9696;53.686;10.094;2022-09-28T06:23:35;26.63;;;13.03;;
19127;SDS011;9696;53.686;10.094;2022-09-28T06:26:08;22.20;;;13.03;;
19127;SDS011;9696;53.686;10.094;2022-09-28T06:28:38;27.50;;;13.90;;
19127;SDS011;9696;53.686;10.094;2022-09-28T06:31:08;25.20;;;12.77;;
19127;SDS011;9696;53.686;10.094;2022-09-28T06:33:45;22.57;;;12.47;;
19127;SDS011;9696;53.686;10.094;2022-09-28T06:36:17;28.87;;;13.10;;
19127;SDS011;9696;53.686;10.094;2022-09-28T06:38:48;26.00;;;12.73;;
19127;SDS011;9696;53.686;10.094;2022-09-28T06:41:21;26.23;;;12.67;;
19127;SDS011;9696;53.686;10.094;2022-09-28T06:43:50;26.53;;;13.23;;
19127;SDS011;9696;53.686;10.094;2022-09-28T06:46:38;28.77;;;13.77;;
19127;SDS011;9696;53.686;10.094;2022-09-28T06:49:33;26.20;;;11.90;;
19127;SDS011;9696;53.686;10.094;2022-09-28T06:52:31;25.20;;;11.87;;
19127;SDS011;9696;53.686;10.094;2022-09-28T06:55:04;35.20;;;13.67;;
19127;SDS011;9696;53.686;10.094;2022-09-28T06:57:41;29.17;;;12.60;;
19127;SDS011;9696;53.686;10.094;2022-09-28T07:00:11;29.20;;;12.47;;
19127;SDS011;9696;53.686;10.094;2022-09-28T07:02:43;27.33;;;12.67;;
19127;SDS011;9696;53.686;10.094;2022-09-28T07:05:31;24.13;;;12.40;;
19127;SDS011;9696;53.686;10.094;2022-09-28T07:08:19;23.07;;;11.97;;
19127;SDS011;9696;53.686;10.094;2022-09-28T07:11:21;24.20;;;11.77;;
19127;SDS011;9696;53.686;10.094;2022-09-28T07:14:11;30.77;;;13.13;;
19127;SDS011;9696;53.686;10.094;2022-09-28T07:17:00;24.17;;;12.60;;
19127;SDS011;9696;53.686;10.094;2022-09-28T07:19:40;22.43;;;10.90;;
19127;SDS011;9696;53.686;10.094;2022-09-28T07:22:10;22.97;;;12.00;;
19127;SDS011;9696;53.686;10.094;2022-09-28T07:24:45;28.10;;;13.50;;
19127;SDS011;9696;53.686;10.094;2022-09-28T07:27:41;29.53;;;13.00;;
19127;SDS011;9696;53.686;10.094;2022-09-28T07:30:17;25.17;;;11.43;;
19127;SDS011;9696;53.686;10.094;2022-09-28T07:33:06;18.43;;;10.60;;
19127;SDS011;9696;53.686;10.094;2022-09-28T07:35:49;26.57;;;11.67;;
19127;SDS011;9696;53.686;10.094;2022-09-28T07:38:20;23.03;;;11.07;;
19127;SDS011;9696;53.686;10.094;2022-09-28T07:40:52;24.53;;;12.10;;
19127;SDS011;9696;53.686;10.094;2022-09-28T07:43:49;25.17;;;11.33;;
19127;SDS011;9696;53.686;10.094;2022-09-28T07:46:20;21.90;;;11.67;;
19127;SDS011;9696;53.686;10.094;2022-09-28T07:49:00;21.10;;;10.70;;
19127;SDS011;9696;53.686;10.094;2022-09-28T07:51:58;20.80;;;10.30;;
19127;SDS011;9696;53.686;10.094;2022-09-28T07:54:27;24.80;;;10.90;;
19127;SDS011;9696;53.686;10.094;2022-09-28T07:57:15;20.90;;;10.87;;
19127;SDS011;9696;53.686;10.094;2022-09-28T07:59:49;20.90;;;10.93;;
19127;SDS011;9696;53.686;10.094;2022-09-28T08:02:43;22.47;;;10.33;;
19127;SDS011;9696;53.686;10.094;2022-09-28T08:05:22;18.37;;;9.60;;
19127;SDS011;9696;53.686;10.094;2022-09-28T08:07:52;22.13;;;10.07;;
19127;SDS011;9696;53.686;10.094;2022-09-28T08:10:24;20.53;;;10.93;;
19127;SDS011;9696;53.686;10.094;2022-09-28T08:13:15;24.90;;;10.10;;
19127;SDS011;9696;53.686;10.094;2022-09-28T08:16:03;21.77;;;10.47;;
19127;SDS011;9696;53.686;10.094;2022-09-28T08:18:40;23.07;;;10.53;;
19127;SDS011;9696;53.686;10.094;2022-09-28T08:21:09;26.10;;;10.27;;
19127;SDS011;9696;53.686;10.094;2022-09-28T08:23:56;24.17;;;11.03;;
19127;SDS011;9696;53.686;10.094;2022-09-28T08:26:25;18.43;;;9.53;;
19127;SDS011;9696;53.686;10.094;2022-09-28T08:28:54;17.37;;;9.27;;
19127;SDS011;9696;53.686;10.094;2022-09-28T08:31:46;16.37;;;9.37;;
19127;SDS011;9696;53.686;10.094;2022-09-28T08:34:35;20.73;;;10.60;;
19127;SDS011;9696;53.686;10.094;2022-09-28T08:37:08;21.30;;;11.03;;
19127;SDS011;9696;53.686;10.094;2022-09-28T08:39:37;20.33;;;10.73;;
19127;SDS011;9696;53.686;10.094;2022-09-28T08:42:32;19.87;;;10.00;;
19127;SDS011;9696;53.686;10.094;2022-09-28T08:45:42;20.03;;;10.67;;
19127;SDS011;9696;53.686;10.094;2022-09-28T08:48:33;17.03;;;8.77;;
19127;SDS011;9696;53.686;10.094;2022-09-28T08:52:04;18.43;;;9.93;;
19127;SDS011;9696;53.686;10.094;2022-09-28T08:54:52;21.47;;;10.00;;
19127;SDS011;9696;53.686;10.094;2022-09-28T08:57:32;21.37;;;11.27;;
19127;SDS011;9696;53.686;10.094;2022-09-28T09:00:09;17.10;;;10.10;;
19127;SDS011;9696;53.686;10.094;2022-09-28T09:02:46;21.47;;;10.63;;
19127;SDS011;9696;53.686;10.094;2022-09-28T09:05:18;20.47;;;11.17;;
19127;SDS011;9696;53.686;10.094;2022-09-28T09:08:06;18.63;;;10.47;;
19127;SDS011;9696;53.686;10.094;2022-09-28T09:10:48;20.00;;;10.57;;
19127;SDS011;9696;53.686;10.094;2022-09-28T09:16:31;21.50;;;10.57;;
19127;SDS011;9696;53.686;10.094;2022-09-28T09:19:13;19.60;;;9.60;;
19127;SDS011;9696;53.686;10.094;2022-09-28T09:22:08;20.77;;;11.03;;
19127;SDS011;9696;53.686;10.094;2022-09-28T09:24:48;20.10;;;9.73;;
19127;SDS011;9696;53.686;10.094;2022-09-28T09:27:30;19.63;;;10.13;;
19127;SDS011;9696;53.686;10.094;2022-09-28T09:30:09;17.73;;;10.30;;
19127;SDS011;9696;53.686;10.094;2022-09-28T09:32:51;20.13;;;11.20;;
19127;SDS011;9696;53.686;10.094;2022-09-28T09:36:02;17.03;;;10.50;;
19127;SDS011;9696;53.686;10.094;2022-09-28T09:38:59;18.00;;;10.30;;
19127;SDS011;9696;53.686;10.094;2022-09-28T09:42:00;23.10;;;11.07;;
19127;SDS011;9696;53.686;10.094;2022-09-28T09:45:08;17.60;;;9.20;;
19127;SDS011;9696;53.686;10.094;2022-09-28T09:48:05;17.63;;;9.43;;
19127;SDS011;9696;53.686;10.094;2022-09-28T09:50:43;21.13;;;9.47;;
19127;SDS011;9696;53.686;10.094;2022-09-28T09:53:17;16.40;;;9.43;;
19127;SDS011;9696;53.686;10.094;2022-09-28T09:55:51;17.50;;;10.17;;
19127;SDS011;9696;53.686;10.094;2022-09-28T09:58:56;14.20;;;8.83;;
19127;SDS011;9696;53.686;10.094;2022-09-28T10:01:44;17.83;;;9.03;;
19127;SDS011;9696;53.686;10.094;2022-09-28T10:04:19;15.60;;;9.77;;
19127;SDS011;9696;53.686;10.094;2022-09-28T10:06:55;14.67;;;9.10;;
19127;SDS011;9696;53.686;10.094;2022-09-28T10:09:30;15.87;;;9.13;;
19127;SDS011;9696;53.686;10.094;2022-09-28T10:12:18;19.80;;;10.23;;
19127;SDS011;9696;53.686;10.094;2022-09-28T10:14:51;20.10;;;8.97;;
19127;SDS011;9696;53.686;10.094;2022-09-28T10:17:25;15.75;;;8.95;;
19127;SDS011;9696;53.686;10.094;2022-09-28T10:20:13;15.40;;;9.80;;
19127;SDS011;9696;53.686;10.094;2022-09-28T10:22:58;18.63;;;9.57;;
19127;SDS011;9696;53.686;10.094;2022-09-28T10:25:31;18.20;;;11.00;;
19127;SDS011;9696;53.686;10.094;2022-09-28T10:28:04;18.87;;;10.50;;
19127;SDS011;9696;53.686;10.094;2022-09-28T10:30:37;18.30;;;10.37;;
19127;SDS011;9696;53.686;10.094;2022-09-28T10:33:09;17.83;;;9.10;;
19127;SDS011;9696;53.686;10.094;2022-09-28T10:35:55;21.43;;;10.63;;
19127;SDS011;9696;53.686;10.094;2022-09-28T10:38:29;17.57;;;9.67;;
19127;SDS011;9696;53.686;10.094;2022-09-28T10:41:10;19.75;;;9.18;;
19127;SDS011;9696;53.686;10.094;2022-09-28T10:43:55;13.60;;;7.05;;
19127;SDS011;9696;53.686;10.094;2022-09-28T10:47:09;14.18;;;6.95;;
19127;SDS011;9696;53.686;10.094;2022-09-28T10:49:45;15.00;;;7.07;;
19127;SDS011;9696;53.686;10.094;2022-09-28T10:52:30;24.48;;;7.38;;
19127;SDS011;9696;53.686;10.094;2022-09-28T10:55:21;15.50;;;7.20;;
19127;SDS011;9696;53.686;10.094;2022-09-28T10:57:59;12.73;;;7.45;;
19127;SDS011;9696;53.686;10.094;2022-09-28T11:00:45;13.35;;;7.07;;
19127;SDS011;9696;53.686;10.094;2022-09-28T11:03:19;12.30;;;6.38;;
19127;SDS011;9696;53.686;10.094;2022-09-28T11:05:53;12.57;;;6.43;;
19127;SDS011;9696;53.686;10.094;2022-09-28T11:08:26;10.45;;;5.63;;
19127;SDS011;9696;53.686;10.094;2022-09-28T11:11:03;11.07;;;6.07;;
19127;SDS011;9696;53.686;10.094;2022-09-28T11:13:39;10.48;;;6.10;;
19127;SDS011;9696;53.686;10.094;2022-09-28T11:16:25;12.57;;;5.80;;
19127;SDS011;9696;53.686;10.094;2022-09-28T11:18:58;12.55;;;5.90;;
19127;SDS011;9696;53.686;10.094;2022-09-28T11:21:39;13.18;;;5.35;;
19127;SDS011;9696;53.686;10.094;2022-09-28T11:24:17;8.90;;;4.82;;
19127;SDS011;9696;53.686;10.094;2022-09-28T11:26:49;17.60;;;4.55;;
19127;SDS011;9696;53.686;10.094;2022-09-28T11:29:24;11.98;;;4.85;;
19127;SDS011;9696;53.686;10.094;2022-09-28T11:32:26;9.35;;;4.43;;
19127;SDS011;9696;53.686;10.094;2022-09-28T11:35:19;7.13;;;4.28;;
19127;SDS011;9696;53.686;10.094;2022-09-28T11:37:56;7.30;;;4.83;;
19127;SDS011;9696;53.686;10.094;2022-09-28T11:41:16;5.07;;;2.70;;
19127;SDS011;9696;53.686;10.094;2022-09-28T11:50:13;3.93;;;2.30;;
19127;SDS011;9696;53.686;10.094;2022-09-28T11:53:01;3.40;;;1.60;;
19127;SDS011;9696;53.686;10.094;2022-09-28T11:55:38;3.00;;;1.30;;
19127;SDS011;9696;53.686;10.094;2022-09-28T11:58:16;1.40;;;1.20;;
19127;SDS011;9696;53.686;10.094;2022-09-28T12:00:53;2.90;;;1.65;;
19127;SDS011;9696;53.686;10.094;2022-09-28T12:03:43;2.75;;;1.42;;
19127;SDS011;9696;53.686;10.094;2022-09-28T12:06:24;2.35;;;1.27;;
19127;SDS011;9696;53.686;10.094;2022-09-28T12:09:29;3.25;;;1.40;;
19127;SDS011;9696;53.686;10.094;2022-09-28T12:12:19;2.40;;;1.30;;
19127;SDS011;9696;53.686;10.094;2022-09-28T12:15:00;2.83;;;1.48;;
19127;SDS011;9696;53.686;10.094;2022-09-28T12:17:33;2.33;;;1.40;;
19127;SDS011;9696;53.686;10.094;2022-09-28T12:20:09;3.20;;;1.45;;
19127;SDS011;9696;53.686;10.094;2022-09-28T12:22:47;9.82;;;4.82;;
19127;SDS011;9696;53.686;10.094;2022-09-28T12:25:28;2.42;;;1.10;;
19127;SDS011;9696;53.686;10.094;2022-09-28T12:28:06;3.40;;;1.13;;
19127;SDS011;9696;53.686;10.094;2022-09-28T12:30:45;3.08;;;1.05;;
19127;SDS011;9696;53.686;10.094;2022-09-28T12:33:16;3.40;;;0.90;;
19127;SDS011;9696;53.686;10.094;2022-09-28T12:35:53;2.65;;;1.30;;
19127;SDS011;9696;53.686;10.094;2022-09-28T12:38:42;1.48;;;0.80;;
19127;SDS011;9696;53.686;10.094;2022-09-28T12:41:44;4.47;;;1.70;;
19127;SDS011;9696;53.686;10.094;2022-09-28T12:44:32;2.58;;;0.80;;
19127;SDS011;9696;53.686;10.094;2022-09-28T12:47:21;1.85;;;0.95;;
19127;SDS011;9696;53.686;10.094;2022-09-28T12:50:05;2.13;;;0.95;;
19127;SDS011;9696;53.686;10.094;2022-09-28T12:53:09;3.10;;;0.95;;
19127;SDS011;9696;53.686;10.094;2022-09-28T12:55:59;4.68;;;0.55;;
19127;SDS011;9696;53.686;10.094;2022-09-28T12:58:39;0.80;;;0.60;;
19127;SDS011;9696;53.686;10.094;2022-09-28T13:01:33;1.27;;;0.55;;
19127;SDS011;9696;53.686;10.094;2022-09-28T13:04:29;1.40;;;0.75;;
19127;SDS011;9696;53.686;10.094;2022-09-28T13:07:28;2.78;;;0.77;;
19127;SDS011;9696;53.686;10.094;2022-09-28T13:10:09;6.57;;;0.90;;
19127;SDS011;9696;53.686;10.094;2022-09-28T13:12:50;1.90;;;0.88;;
19127;SDS011;9696;53.686;10.094;2022-09-28T13:15:38;5.47;;;1.27;;
19127;SDS011;9696;53.686;10.094;2022-09-28T13:18:11;1.77;;;0.90;;
19127;SDS011;9696;53.686;10.094;2022-09-28T13:20:54;1.05;;;0.75;;
19127;SDS011;9696;53.686;10.094;2022-09-28T13:23:32;2.60;;;0.90;;
19127;SDS011;9696;53.686;10.094;2022-09-28T13:26:08;2.10;;;1.00;;
19127;SDS011;9696;53.686;10.094;2022-09-28T13:28:45;1.98;;;0.70;;
19127;SDS011;9696;53.686;10.094;2022-09-28T13:31:16;2.17;;;1.08;;
19127;SDS011;9696;53.686;10.094;2022-09-28T13:33:48;2.75;;;0.77;;
19127;SDS011;9696;53.686;10.094;2022-09-28T13:36:37;3.30;;;1.08;;
19127;SDS011;9696;53.686;10.094;2022-09-28T13:39:36;2.05;;;1.13;;
19127;SDS011;9696;53.686;10.094;2022-09-28T13:42:25;3.47;;;0.90;;
19127;SDS011;9696;53.686;10.094;2022-09-28T13:45:31;2.63;;;0.93;;
19127;SDS011;9696;53.686;10.094;2022-09-28T13:48:20;4.28;;;1.20;;
19127;SDS011;9696;53.686;10.094;2022-09-28T13:54:00;1.98;;;1.30;;
19127;SDS011;9696;53.686;10.094;2022-09-28T13:56:52;7.75;;;1.17;;
19127;SDS011;9696;53.686;10.094;2022-09-28T13:59:29;5.65;;;1.80;;
19127;SDS011;9696;53.686;10.094;2022-09-28T14:02:12;5.47;;;1.47;;
19127;SDS011;9696;53.686;10.094;2022-09-28T14:04:56;6.23;;;1.17;;
19127;SDS011;9696;53.686;10.094;2022-09-28T14:16:24;4.83;;;1.80;;
19127;SDS011;9696;53.686;10.094;2022-09-28T14:18:58;3.17;;;1.25;;
19127;SDS011;9696;53.686;10.094;2022-09-28T14:21:44;2.40;;;0.95;;
19127;SDS011;9696;53.686;10.094;2022-09-28T14:27:39;0.73;;;0.73;;
19127;SDS011;9696;53.686;10.094;2022-09-28T14:30:32;2.05;;;0.88;;
19127;SDS011;9696;53.686;10.094;2022-09-28T14:33:15;3.88;;;2.10;;
19127;SDS011;9696;53.686;10.094;2022-09-28T14:35:54;4.85;;;2.00;;
19127;SDS011;9696;53.686;10.094;2022-09-28T14:38:24;5.07;;;3.13;;
19127;SDS011;9696;53.686;10.094;2022-09-28T14:41:25;19.77;;;9.70;;
19127;SDS011;9696;53.686;10.094;2022-09-28T14:44:08;9.13;;;4.90;;
19127;SDS011;9696;53.686;10.094;2022-09-28T14:46:40;8.80;;;1.77;;
19127;SDS011;9696;53.686;10.094;2022-09-28T14:52:17;5.47;;;2.58;;
19127;SDS011;9696;53.686;10.094;2022-09-28T14:55:01;6.22;;;3.45;;
19127;SDS011;9696;53.686;10.094;2022-09-28T14:57:38;4.45;;;2.65;;
19127;SDS011;9696;53.686;10.094;2022-09-28T15:00:14;3.67;;;2.65;;
19127;SDS011;9696;53.686;10.094;2022-09-28T15:02:47;5.13;;;1.48;;
19127;SDS011;9696;53.686;10.094;2022-09-28T15:05:19;3.08;;;1.58;;
19127;SDS011;9696;53.686;10.094;2022-09-28T15:07:52;5.97;;;3.25;;
19127;SDS011;9696;53.686;10.094;2022-09-28T15:10:27;1.35;;;1.00;;
19127;SDS011;9696;53.686;10.094;2022-09-28T15:12:58;3.22;;;1.92;;
19127;SDS011;9696;53.686;10.094;2022-09-28T15:15:29;1.65;;;1.10;;
19127;SDS011;9696;53.686;10.094;2022-09-28T15:18:04;2.45;;;1.08;;
19127;SDS011;9696;53.686;10.094;2022-09-28T15:20:47;1.83;;;1.00;;
19127;SDS011;9696;53.686;10.094;2022-09-28T15:23:25;4.47;;;1.10;;
19127;SDS011;9696;53.686;10.094;2022-09-28T15:26:01;3.22;;;1.10;;
19127;SDS011;9696;53.686;10.094;2022-09-28T15:28:33;3.07;;;1.10;;
19127;SDS011;9696;53.686;10.094;2022-09-28T15:31:05;4.67;;;1.07;;
19127;SDS011;9696;53.686;10.094;2022-09-28T15:33:34;2.67;;;1.67;;
19127;SDS011;9696;53.686;10.094;2022-09-28T15:36:21;3.10;;;0.90;;
19127;SDS011;9696;53.686;10.094;2022-09-28T15:38:56;3.03;;;1.00;;
19127;SDS011;9696;53.686;10.094;2022-09-28T15:41:27;2.70;;;0.97;;
19127;SDS011;9696;53.686;10.094;2022-09-28T15:44:16;2.27;;;1.00;;
19127;SDS011;9696;53.686;10.094;2022-09-28T15:47:08;5.23;;;1.50;;
19127;SDS011;9696;53.686;10.094;2022-09-28T15:49:42;2.10;;;1.17;;
19127;SDS011;9696;53.686;10.094;2022-09-28T15:52:27;3.30;;;0.83;;
19127;SDS011;9696;53.686;10.094;2022-09-28T15:55:04;3.20;;;1.47;;
19127;SDS011;9696;53.686;10.094;2022-09-28T15:57:45;2.57;;;1.40;;
19127;SDS011;9696;53.686;10.094;2022-09-28T16:00:21;2.20;;;1.43;;
19127;SDS011;9696;53.686;10.094;2022-09-28T16:02:57;22.90;;;10.87;;
19127;SDS011;9696;53.686;10.094;2022-09-28T16:05:39;19.00;;;7.83;;
19127;SDS011;9696;53.686;10.094;2022-09-28T16:08:12;15.20;;;7.40;;
19127;SDS011;9696;53.686;10.094;2022-09-28T16:10:52;4.83;;;1.90;;
19127;SDS011;9696;53.686;10.094;2022-09-28T16:13:24;7.63;;;4.17;;
19127;SDS011;9696;53.686;10.094;2022-09-28T16:15:55;7.83;;;3.43;;
19127;SDS011;9696;53.686;10.094;2022-09-28T16:18:27;5.47;;;2.17;;